createdAt,value
2022-07-25T00:02:04.602Z,22.54
2022-07-25T00:04:34.375Z,22.49
2022-07-25T00:07:04.851Z,22.35
2022-07-25T00:09:32.170Z,22.26
2022-07-25T00:11:59.299Z,22.27
2022-07-25T00:14:26.722Z,22.29
2022-07-25T00:16:53.720Z,22.28
2022-07-25T00:19:22.943Z,22.27
2022-07-25T00:21:50.101Z,22.33
2022-07-25T00:24:20.214Z,22.33
2022-07-25T00:26:47.108Z,22.34
2022-07-25T00:29:14.184Z,22.39
2022-07-25T00:31:43.983Z,22.45
2022-07-25T00:34:11.252Z,22.50
2022-07-25T00:36:38.518Z,22.55
2022-07-25T00:39:05.970Z,22.58
2022-07-25T00:41:37.029Z,22.58
2022-07-25T00:44:05.399Z,22.57
2022-07-25T00:46:33.097Z,22.57
2022-07-25T00:49:00.893Z,22.54
2022-07-25T00:51:28.567Z,22.51
2022-07-25T00:53:57.519Z,22.42
2022-07-25T00:56:25.208Z,22.30
2022-07-25T00:58:54.636Z,22.30
2022-07-25T01:01:22.022Z,22.35
2022-07-25T01:03:50.785Z,22.42
2022-07-25T01:06:18.555Z,22.45
2022-07-25T01:08:47.160Z,22.33
2022-07-25T01:11:14.047Z,22.32
2022-07-25T01:13:41.646Z,22.31
2022-07-25T01:16:12.699Z,22.28
2022-07-25T01:18:40.272Z,22.28
2022-07-25T01:21:09.305Z,22.31
2022-07-25T01:23:37.962Z,22.19
2022-07-25T01:26:05.482Z,22.24
2022-07-25T01:28:35.311Z,22.25
2022-07-25T01:31:04.811Z,22.29
2022-07-25T01:33:31.755Z,22.29
2022-07-25T01:35:59.309Z,22.30
2022-07-25T01:38:27.701Z,22.29
2022-07-25T01:40:54.538Z,22.30
2022-07-25T01:43:21.531Z,22.31
2022-07-25T01:45:48.770Z,22.33
2022-07-25T01:48:15.751Z,22.36
2022-07-25T01:50:45.823Z,22.35
2022-07-25T01:53:12.703Z,22.28
2022-07-25T01:55:41.938Z,22.23
2022-07-25T01:58:09.978Z,22.14
2022-07-25T02:00:37.565Z,22.13
2022-07-25T02:03:06.700Z,22.04
2022-07-25T02:05:33.548Z,21.99
2022-07-25T02:08:00.898Z,21.72
2022-07-25T02:10:28.294Z,21.64
2022-07-25T02:12:56.629Z,21.66
2022-07-25T02:15:23.650Z,21.72
2022-07-25T02:17:50.786Z,21.75
2022-07-25T02:20:17.858Z,21.76
2022-07-25T02:22:44.821Z,21.80
2022-07-25T02:25:11.792Z,21.85
2022-07-25T02:27:38.656Z,21.91
2022-07-25T02:30:08.689Z,21.95
2022-07-25T02:32:36.400Z,21.99
2022-07-25T02:35:04.018Z,21.99
2022-07-25T02:37:40.410Z,22.03
2022-07-25T02:40:09.000Z,22.06
2022-07-25T02:42:38.919Z,22.08
2022-07-25T02:45:09.098Z,22.14
2022-07-25T02:47:36.080Z,22.15
2022-07-25T02:50:06.923Z,22.17
2022-07-25T02:52:36.434Z,22.17
2022-07-25T02:55:09.247Z,22.16
2022-07-25T02:57:37.171Z,22.16
2022-07-25T03:00:08.320Z,22.13
2022-07-25T03:02:35.310Z,22.04
2022-07-25T03:05:02.399Z,22.00
2022-07-25T03:07:29.783Z,21.95
2022-07-25T03:09:56.657Z,21.97
2022-07-25T03:12:23.537Z,21.97
2022-07-25T03:15:20.249Z,21.96
2022-07-25T03:17:47.663Z,21.90
2022-07-25T03:20:14.616Z,21.94
2022-07-25T03:22:42.022Z,21.94
2022-07-25T03:25:15.790Z,21.97
2022-07-25T03:27:57.299Z,21.98
2022-07-25T03:30:25.640Z,21.99
2022-07-25T03:32:52.592Z,22.00
2022-07-25T03:35:19.505Z,21.99
2022-07-25T03:37:52.573Z,21.97
2022-07-25T03:40:20.155Z,21.94
2022-07-25T03:42:47.081Z,21.92
2022-07-25T03:45:17.226Z,21.90
2022-07-25T03:47:51.759Z,21.90
2022-07-25T03:50:19.069Z,21.92
2022-07-25T03:52:46.515Z,21.89
2022-07-25T03:55:13.572Z,21.77
2022-07-25T03:57:40.527Z,21.59
2022-07-25T04:00:10.417Z,21.53
2022-07-25T04:02:38.108Z,21.49
2022-07-25T04:05:09.056Z,21.50
2022-07-25T04:08:05.069Z,21.50
2022-07-25T04:10:48.092Z,21.40
2022-07-25T04:13:15.289Z,21.47
2022-07-25T04:15:42.128Z,21.58
2022-07-25T04:18:09.115Z,21.76
2022-07-25T04:20:41.448Z,22.01
2022-07-25T04:23:08.944Z,22.26
2022-07-25T04:25:35.869Z,22.59
2022-07-25T04:28:03.788Z,22.88
2022-07-25T04:30:33.061Z,23.13
2022-07-25T04:33:01.505Z,23.35
2022-07-25T04:35:28.723Z,23.66
2022-07-25T04:37:57.496Z,24.10
2022-07-25T04:40:24.767Z,24.59
2022-07-25T04:42:52.286Z,25.17
2022-07-25T04:45:19.508Z,25.64
2022-07-25T04:47:47.412Z,26.13
2022-07-25T04:50:15.461Z,26.63
2022-07-25T04:52:42.713Z,27.13
2022-07-25T04:55:11.682Z,27.67
2022-07-25T04:57:38.824Z,27.48
2022-07-25T05:00:09.513Z,27.99
2022-07-25T05:02:37.836Z,28.39
2022-07-25T05:05:06.172Z,28.87
2022-07-25T05:07:33.307Z,28.79
2022-07-25T05:10:00.693Z,29.42
2022-07-25T05:12:29.343Z,29.63
2022-07-25T05:14:56.422Z,30.41
2022-07-25T05:17:25.494Z,31.21
2022-07-25T05:19:52.348Z,31.72
2022-07-25T05:22:19.533Z,31.96
2022-07-25T05:24:46.478Z,31.39
2022-07-25T05:27:13.830Z,32.10
2022-07-25T05:29:42.251Z,32.78
2022-07-25T05:32:09.390Z,33.38
2022-07-25T05:34:36.272Z,33.89
2022-07-25T05:37:03.457Z,33.46
2022-07-25T05:39:30.373Z,33.10
2022-07-25T05:41:57.454Z,33.38
2022-07-25T05:44:24.332Z,33.77
2022-07-25T05:46:52.855Z,33.29
2022-07-25T05:49:19.932Z,32.13
2022-07-25T05:51:46.955Z,32.51
2022-07-25T05:54:13.768Z,33.08
2022-07-25T05:56:41.310Z,33.51
2022-07-25T05:59:08.199Z,33.74
2022-07-25T06:01:35.136Z,34.06
2022-07-25T06:04:07.000Z,34.62
2022-07-25T06:06:34.128Z,35.10
2022-07-25T06:09:01.006Z,36.16
2022-07-25T06:11:27.973Z,36.63
2022-07-25T06:13:58.089Z,37.38
2022-07-25T06:16:25.269Z,37.52
2022-07-25T06:18:52.402Z,38.29
2022-07-25T06:21:20.757Z,35.08
2022-07-25T06:23:47.909Z,33.18
2022-07-25T06:26:14.708Z,31.66
2022-07-25T06:28:41.677Z,30.90
2022-07-25T06:31:08.705Z,31.67
2022-07-25T06:33:35.602Z,33.01
2022-07-25T06:36:04.673Z,30.99
2022-07-25T06:38:32.798Z,30.86
2022-07-25T06:40:59.778Z,29.59
2022-07-25T06:43:26.752Z,29.91
2022-07-25T06:45:54.542Z,28.69
2022-07-25T06:48:21.462Z,29.62
2022-07-25T06:50:48.326Z,29.22
2022-07-25T06:53:15.091Z,29.64
2022-07-25T06:55:43.387Z,30.75
2022-07-25T06:58:10.458Z,30.47
2022-07-25T07:00:38.051Z,31.04
2022-07-25T07:03:05.370Z,31.43
2022-07-25T07:05:35.423Z,31.15
2022-07-25T07:08:03.528Z,30.90
2022-07-25T07:10:31.292Z,31.52
2022-07-25T07:13:11.358Z,30.96
2022-07-25T07:15:39.730Z,30.23
2022-07-25T07:18:07.371Z,30.35
2022-07-25T07:20:34.565Z,30.76
2022-07-25T07:23:01.589Z,31.54
2022-07-25T07:25:28.646Z,31.08
2022-07-25T07:27:56.372Z,30.86
2022-07-25T07:30:37.642Z,32.25
2022-07-25T07:33:11.665Z,32.64
2022-07-25T07:35:38.578Z,32.84
2022-07-25T07:38:06.062Z,30.99
2022-07-25T07:40:32.883Z,30.17
2022-07-25T07:42:59.836Z,30.92
2022-07-25T07:45:28.547Z,30.00
2022-07-25T07:47:56.714Z,29.83
2022-07-25T07:50:27.061Z,29.65
2022-07-25T07:52:55.937Z,29.66
2022-07-25T07:55:24.629Z,29.78
2022-07-25T07:57:52.035Z,29.61
2022-07-25T08:00:19.866Z,29.71
2022-07-25T08:02:51.709Z,29.95
2022-07-25T08:05:23.665Z,30.52
2022-07-25T08:07:52.340Z,31.47
2022-07-25T08:10:21.768Z,30.48
2022-07-25T08:12:50.389Z,31.22
2022-07-25T08:15:19.083Z,32.46
2022-07-25T08:17:47.918Z,31.28
2022-07-25T08:20:37.024Z,31.46
2022-07-25T08:23:02.259Z,31.09
2022-07-25T08:25:29.730Z,31.17
2022-07-25T08:27:56.708Z,31.08
2022-07-25T08:30:23.836Z,31.73
2022-07-25T08:32:55.095Z,32.29
2022-07-25T08:35:23.745Z,33.11
2022-07-25T08:37:51.635Z,33.65
2022-07-25T08:40:21.672Z,32.46
2022-07-25T08:42:49.715Z,32.77
2022-07-25T08:45:19.255Z,32.98
2022-07-25T08:47:47.923Z,33.30
2022-07-25T08:50:18.861Z,33.01
2022-07-25T08:52:48.037Z,33.66
2022-07-25T08:55:17.919Z,33.80
2022-07-25T08:57:46.778Z,34.33
2022-07-25T09:00:17.929Z,34.60
2022-07-25T09:02:53.303Z,34.25
2022-07-25T09:05:23.919Z,34.63
2022-07-25T09:07:52.770Z,34.93
2022-07-25T09:10:23.258Z,35.18
2022-07-25T09:12:55.969Z,35.39
2022-07-25T09:15:25.639Z,35.62
2022-07-25T09:17:54.356Z,35.65
2022-07-25T09:20:23.625Z,35.73
2022-07-25T09:22:51.260Z,35.84
2022-07-25T09:25:28.087Z,35.90
2022-07-25T09:27:55.166Z,36.14
2022-07-25T09:30:22.762Z,36.14
2022-07-25T09:32:59.678Z,36.16
2022-07-25T09:35:31.979Z,36.41
2022-07-25T09:38:16.976Z,36.48
2022-07-25T09:40:55.837Z,36.54
2022-07-25T09:43:23.712Z,36.72
2022-07-25T09:45:52.069Z,36.48
2022-07-25T09:48:19.983Z,36.43
2022-07-25T09:50:49.359Z,36.63
2022-07-25T09:53:17.563Z,36.94
2022-07-25T09:55:45.291Z,37.04
2022-07-25T09:58:13.678Z,37.02
2022-07-25T10:00:42.437Z,37.25
2022-07-25T10:03:24.128Z,37.47
2022-07-25T10:06:12.951Z,37.70
2022-07-25T10:08:41.721Z,37.81
2022-07-25T10:11:25.235Z,38.05
2022-07-25T10:13:54.754Z,38.35
2022-07-25T10:16:27.550Z,38.51
2022-07-25T10:18:59.727Z,38.61
2022-07-25T10:21:28.992Z,38.64
2022-07-25T10:24:02.566Z,37.89
2022-07-25T10:26:31.229Z,37.90
2022-07-25T10:28:59.759Z,37.54
2022-07-25T10:31:36.574Z,38.07
2022-07-25T10:34:07.507Z,38.24
2022-07-25T10:36:46.426Z,38.61
2022-07-25T10:39:15.808Z,38.73
2022-07-25T10:41:51.157Z,38.65
2022-07-25T10:44:18.314Z,39.23
2022-07-25T10:46:46.131Z,39.47
2022-07-25T10:49:29.121Z,39.67
2022-07-25T10:52:02.015Z,39.96
2022-07-25T10:54:34.870Z,40.29
2022-07-25T10:57:03.059Z,40.10
2022-07-25T10:59:34.126Z,40.13
2022-07-25T11:02:02.333Z,40.62
2022-07-25T11:04:30.372Z,40.89
2022-07-25T11:07:07.951Z,40.57
2022-07-25T11:09:35.075Z,40.57
2022-07-25T11:12:02.058Z,40.85
2022-07-25T11:14:33.779Z,41.41
2022-07-25T11:17:13.719Z,41.53
2022-07-25T11:19:42.216Z,41.91
2022-07-25T11:22:11.044Z,42.01
2022-07-25T11:24:40.957Z,42.04
2022-07-25T11:27:12.170Z,41.49
2022-07-25T11:29:40.622Z,42.00
2022-07-25T11:32:10.499Z,41.99
2022-07-25T11:34:41.135Z,41.78
2022-07-25T11:37:13.131Z,41.69
2022-07-25T11:39:45.281Z,41.00
2022-07-25T11:42:15.317Z,40.71
2022-07-25T11:44:47.891Z,40.18
2022-07-25T11:47:28.132Z,39.81
2022-07-25T11:49:57.450Z,39.27
2022-07-25T11:52:30.674Z,39.14
2022-07-25T11:55:00.426Z,39.54
2022-07-25T11:57:32.862Z,39.71
2022-07-25T12:00:01.084Z,40.08
2022-07-25T12:02:30.092Z,39.51
2022-07-25T12:04:59.772Z,39.61
2022-07-25T12:07:47.416Z,38.63
2022-07-25T12:10:17.783Z,38.44
2022-07-25T12:12:52.001Z,38.66
2022-07-25T12:15:22.580Z,38.41
2022-07-25T12:17:51.321Z,37.74
2022-07-25T12:20:21.678Z,37.62
2022-07-25T12:22:52.831Z,37.75
2022-07-25T12:25:20.474Z,37.75
2022-07-25T12:27:48.483Z,37.72
2022-07-25T12:30:19.949Z,37.33
2022-07-25T12:32:47.469Z,37.28
2022-07-25T12:35:15.129Z,36.90
2022-07-25T12:37:42.563Z,36.98
2022-07-25T12:40:13.699Z,36.73
2022-07-25T12:42:40.992Z,36.85
2022-07-25T12:45:10.011Z,36.74
2022-07-25T12:47:37.532Z,36.75
2022-07-25T12:50:06.465Z,36.73
2022-07-25T12:52:33.975Z,36.96
2022-07-25T12:55:20.821Z,37.18
2022-07-25T12:57:48.480Z,37.20
2022-07-25T13:00:19.541Z,37.09
2022-07-25T13:03:23.781Z,36.93
2022-07-25T13:05:56.603Z,36.91
2022-07-25T13:08:49.565Z,37.00
2022-07-25T13:11:18.200Z,37.12
2022-07-25T13:13:45.018Z,37.07
2022-07-25T13:16:11.969Z,36.78
2022-07-25T13:18:39.157Z,36.70
2022-07-25T13:21:07.081Z,36.08
2022-07-25T13:23:34.546Z,36.08
2022-07-25T13:26:01.647Z,36.11
2022-07-25T13:28:30.335Z,36.12
2022-07-25T13:30:57.280Z,35.86
2022-07-25T13:33:24.477Z,36.02
2022-07-25T13:35:51.878Z,36.04
2022-07-25T13:38:19.552Z,36.07
2022-07-25T13:40:47.857Z,36.12
2022-07-25T13:44:06.469Z,35.98
2022-07-25T13:46:36.177Z,36.05
2022-07-25T13:49:07.271Z,36.01
2022-07-25T13:51:34.557Z,36.05
2022-07-25T13:54:03.019Z,35.82
2022-07-25T13:56:31.797Z,35.88
2022-07-25T13:59:02.318Z,35.64
2022-07-25T14:01:29.436Z,35.59
2022-07-25T14:03:56.957Z,35.17
2022-07-25T14:06:23.963Z,35.07
2022-07-25T14:08:50.968Z,34.97
2022-07-25T14:11:17.941Z,34.98
2022-07-25T14:13:45.503Z,35.01
2022-07-25T14:16:14.250Z,34.88
2022-07-25T14:18:41.573Z,34.74
2022-07-25T14:21:08.416Z,34.73
2022-07-25T14:23:35.461Z,34.95
2022-07-25T14:26:02.286Z,35.24
2022-07-25T14:28:30.163Z,35.48
2022-07-25T14:30:57.042Z,35.73
2022-07-25T14:33:25.390Z,35.90
2022-07-25T14:35:52.218Z,35.94
2022-07-25T14:38:19.193Z,35.87
2022-07-25T14:40:46.387Z,35.77
2022-07-25T14:43:13.219Z,35.65
2022-07-25T14:45:41.428Z,35.60
2022-07-25T14:48:08.395Z,35.46
2022-07-25T14:50:36.823Z,35.26
2022-07-25T14:53:04.046Z,35.23
2022-07-25T14:55:30.971Z,35.09
2022-07-25T14:57:58.036Z,35.02
2022-07-25T15:00:29.469Z,34.94
2022-07-25T15:02:57.407Z,34.80
2022-07-25T15:05:24.452Z,34.57
2022-07-25T15:07:52.957Z,34.30
2022-07-25T15:10:20.847Z,34.17
2022-07-25T15:12:51.485Z,33.86
2022-07-25T15:15:25.054Z,32.90
2022-07-25T15:17:52.148Z,32.72
2022-07-25T15:20:19.474Z,32.18
2022-07-25T15:22:46.300Z,32.02
2022-07-25T15:25:57.978Z,31.74
2022-07-25T15:28:01.682Z,31.84
2022-07-25T15:30:29.522Z,32.00
2022-07-25T15:32:59.854Z,32.27
2022-07-25T15:35:27.812Z,32.38
2022-07-25T15:37:54.879Z,32.43
2022-07-25T15:40:23.251Z,32.43
2022-07-25T15:42:50.202Z,32.41
2022-07-25T15:45:32.507Z,32.32
2022-07-25T15:48:00.827Z,32.04
2022-07-25T15:50:27.684Z,31.79
2022-07-25T15:52:54.979Z,31.74
2022-07-25T15:55:23.259Z,31.68
2022-07-25T15:57:51.746Z,31.61
2022-07-25T16:00:19.595Z,31.56
2022-07-25T16:02:46.576Z,31.75
2022-07-25T16:05:14.100Z,31.79
2022-07-25T16:07:41.179Z,31.92
2022-07-25T16:10:09.684Z,31.96
2022-07-25T16:12:39.363Z,32.09
2022-07-25T16:15:08.245Z,32.22
2022-07-25T16:17:37.229Z,32.30
2022-07-25T16:20:05.418Z,32.39
2022-07-25T16:22:32.886Z,32.39
2022-07-25T16:24:59.899Z,32.50
2022-07-25T16:27:27.471Z,32.63
2022-07-25T16:29:56.554Z,32.61
2022-07-25T16:32:23.508Z,32.64
2022-07-25T16:34:50.568Z,32.73
2022-07-25T16:37:17.528Z,32.73
2022-07-25T16:39:44.372Z,32.81
2022-07-25T16:42:11.815Z,32.82
2022-07-25T16:44:38.676Z,32.85
2022-07-25T16:47:08.114Z,32.79
2022-07-25T16:49:35.134Z,32.78
2022-07-25T16:52:02.031Z,32.80
2022-07-25T16:54:29.664Z,32.88
2022-07-25T16:56:59.638Z,32.85
2022-07-25T16:59:27.518Z,32.88
2022-07-25T17:01:54.371Z,32.84
2022-07-25T17:04:22.793Z,32.83
2022-07-25T17:06:49.836Z,32.83
2022-07-25T17:09:16.852Z,32.71
2022-07-25T17:11:43.693Z,32.74
2022-07-25T17:14:10.924Z,32.71
2022-07-25T17:16:39.373Z,32.61
2022-07-25T17:19:06.611Z,32.57
2022-07-25T17:21:34.999Z,32.56
2022-07-25T17:24:01.982Z,32.45
2022-07-25T17:26:29.451Z,32.33
2022-07-25T17:28:56.423Z,32.19
2022-07-25T17:31:23.328Z,32.16
2022-07-25T17:33:50.547Z,32.04
2022-07-25T17:36:17.435Z,32.01
2022-07-25T17:38:46.175Z,31.98
2022-07-25T17:41:13.037Z,31.91
2022-07-25T17:43:40.012Z,31.90
2022-07-25T17:46:06.969Z,31.88
2022-07-25T17:48:33.921Z,31.84
2022-07-25T17:51:00.795Z,31.80
2022-07-25T17:53:27.689Z,31.73
2022-07-25T17:55:56.406Z,31.58
2022-07-25T17:58:23.678Z,31.45
2022-07-25T18:00:50.543Z,31.34
2022-07-25T18:03:17.634Z,31.26
2022-07-25T18:05:44.562Z,31.15
2022-07-25T18:08:11.694Z,31.04
2022-07-25T18:10:38.778Z,30.86
2022-07-25T18:13:07.265Z,30.78
2022-07-25T18:15:34.745Z,30.65
2022-07-25T18:18:02.100Z,30.54
2022-07-25T18:20:29.067Z,30.36
2022-07-25T18:22:56.002Z,30.25
2022-07-25T18:25:23.051Z,30.18
2022-07-25T18:27:50.167Z,30.08
2022-07-25T18:30:18.423Z,29.91
2022-07-25T18:32:45.234Z,29.80
2022-07-25T18:35:13.701Z,29.75
2022-07-25T18:37:41.079Z,29.71
2022-07-25T18:40:10.088Z,29.59
2022-07-25T18:42:37.648Z,29.53
2022-07-25T18:45:06.355Z,29.46
2022-07-25T18:47:35.143Z,29.41
2022-07-25T18:50:03.468Z,29.28
2022-07-25T18:52:30.563Z,29.24
2022-07-25T18:54:57.653Z,29.17
2022-07-25T18:57:24.636Z,29.11
2022-07-25T18:59:51.595Z,28.98
2022-07-25T19:02:18.663Z,28.96
2022-07-25T19:04:47.194Z,28.90
2022-07-25T19:07:14.439Z,28.84
2022-07-25T19:09:41.268Z,28.83
2022-07-25T19:12:09.228Z,28.78
2022-07-25T19:14:36.122Z,28.76
2022-07-25T19:17:04.268Z,28.74
2022-07-25T19:19:31.313Z,28.68
2022-07-25T19:21:59.539Z,28.64
2022-07-25T19:24:26.335Z,28.54
2022-07-25T19:26:53.308Z,28.50
2022-07-25T19:29:20.902Z,28.38
2022-07-25T19:31:47.746Z,28.29
2022-07-25T19:34:15.128Z,28.26
2022-07-25T19:36:42.074Z,28.26
2022-07-25T19:39:10.413Z,28.16
2022-07-25T19:41:37.361Z,28.13
2022-07-25T19:44:05.433Z,28.15
2022-07-25T19:46:33.281Z,28.08
2022-07-25T19:49:01.686Z,28.09
2022-07-25T19:51:28.635Z,28.03
2022-07-25T19:53:55.677Z,28.00
2022-07-25T19:56:28.672Z,27.95
2022-07-25T19:58:55.753Z,27.86
2022-07-25T20:01:22.870Z,27.80
2022-07-25T20:03:50.181Z,27.77
2022-07-25T20:06:17.988Z,27.64
2022-07-25T20:08:44.840Z,27.68
2022-07-25T20:11:12.542Z,27.62
2022-07-25T20:13:41.235Z,27.58
2022-07-25T20:16:08.686Z,27.51
2022-07-25T20:18:36.357Z,27.46
2022-07-25T20:21:04.404Z,27.43
2022-07-25T20:23:32.077Z,27.34
2022-07-25T20:25:59.385Z,27.36
2022-07-25T20:28:26.705Z,27.28
2022-07-25T20:30:56.082Z,27.30
2022-07-25T20:33:24.132Z,27.27
2022-07-25T20:35:51.383Z,27.23
2022-07-25T20:38:18.635Z,27.18
2022-07-25T20:40:49.657Z,27.12
2022-07-25T20:43:17.336Z,27.11
2022-07-25T20:45:44.910Z,27.08
2022-07-25T20:48:14.449Z,27.08
2022-07-25T20:50:42.397Z,27.08
2022-07-25T20:53:10.005Z,27.03
2022-07-25T20:55:39.955Z,27.01
2022-07-25T20:58:07.142Z,27.02
2022-07-25T21:00:34.626Z,26.94
2022-07-25T21:03:02.382Z,26.87
2022-07-25T21:05:37.831Z,26.72
2022-07-25T21:08:09.543Z,26.58
2022-07-25T21:10:37.377Z,26.55
2022-07-25T21:13:10.523Z,26.45
2022-07-25T21:15:46.210Z,26.30
2022-07-25T21:18:18.332Z,26.29
2022-07-25T21:20:49.955Z,26.23
2022-07-25T21:23:19.854Z,26.22
2022-07-25T21:25:47.067Z,26.10
2022-07-25T21:28:14.039Z,26.04
2022-07-25T21:30:42.297Z,26.10
2022-07-25T21:33:14.279Z,26.09
2022-07-25T21:35:49.320Z,26.07
2022-07-25T21:38:27.455Z,26.00
2022-07-25T21:40:55.766Z,25.95
2022-07-25T21:43:22.634Z,25.91
2022-07-25T21:45:50.245Z,25.85
2022-07-25T21:48:22.010Z,25.71
2022-07-25T21:50:50.448Z,25.60
2022-07-25T21:53:17.987Z,25.62
2022-07-25T21:55:46.557Z,25.61
2022-07-25T21:58:13.872Z,25.58
2022-07-25T22:00:45.295Z,25.50
2022-07-25T22:03:12.904Z,25.55
2022-07-25T22:05:39.769Z,25.61
2022-07-25T22:08:06.968Z,25.61
2022-07-25T22:10:36.920Z,25.68
2022-07-25T22:13:05.333Z,25.71
2022-07-25T22:15:32.565Z,25.71
2022-07-25T22:17:59.479Z,25.71
2022-07-25T22:20:26.700Z,25.71
2022-07-25T22:22:54.065Z,25.68
2022-07-25T22:25:21.024Z,25.66
2022-07-25T22:27:48.212Z,25.66
2022-07-25T22:30:19.974Z,25.67
2022-07-25T22:32:48.028Z,25.67
2022-07-25T22:35:15.034Z,25.61
2022-07-25T22:37:42.524Z,25.57
2022-07-25T22:40:11.006Z,25.50
2022-07-25T22:42:37.931Z,25.52
2022-07-25T22:45:09.485Z,25.46
2022-07-25T22:47:39.618Z,25.45
2022-07-25T22:50:09.642Z,25.42
2022-07-25T22:52:36.717Z,25.41
2022-07-25T22:55:04.516Z,25.39
2022-07-25T22:57:37.256Z,25.37
2022-07-25T23:00:08.532Z,25.35
2022-07-25T23:02:37.017Z,25.32
2022-07-25T23:05:05.277Z,25.25
2022-07-25T23:07:32.635Z,25.27
2022-07-25T23:10:01.389Z,25.18
2022-07-25T23:12:28.382Z,24.46
2022-07-25T23:14:55.393Z,23.89
2022-07-25T23:17:22.379Z,24.00
2022-07-25T23:19:54.996Z,24.09
2022-07-25T23:22:52.382Z,24.14
2022-07-25T23:25:29.019Z,24.23
2022-07-25T23:27:56.074Z,24.12
2022-07-25T23:30:23.282Z,23.82
2022-07-25T23:32:50.458Z,23.50
2022-07-25T23:35:43.920Z,23.41
2022-07-25T23:38:20.679Z,23.40
2022-07-25T23:40:47.711Z,23.40
2022-07-25T23:43:15.177Z,23.45
2022-07-25T23:45:57.948Z,23.50
2022-07-25T23:48:24.950Z,23.57
2022-07-25T23:50:53.366Z,23.28
2022-07-25T23:53:20.322Z,22.91
2022-07-25T23:55:57.094Z,22.80
2022-07-25T23:58:24.361Z,22.89
